Time;durP1;ratioP1;P1;durP2;ratioP2;P2;SDS_P1;SDS_P2;PMS_P1;PMS_P2;Temp;Humidity;BMP_temperature;BMP_pressure;BME280_temperature;BME280_humidity;BME280_pressure;Samples;Min_cycle;Max_cycle;Signal;HPM_P1;HPM_P2
2022/03/18 00:02:07;;;;;;;;;23.67;19.00;;;;;22.01;38.20;103072.64;110993;1255;19442;-48
2022/03/18 00:04:34;;;;;;;;;17.50;16.50;;;;;22.01;38.03;103073.23;110924;1255;18784;-48
2022/03/18 00:07:01;;;;;;;;;17.00;16.33;;;;;22.01;38.20;103071.59;110922;1255;30962;-47
2022/03/18 00:09:28;;;;;;;;;17.33;17.00;;;;;22.03;38.08;103078.67;110910;1255;19849;-49
2022/03/18 00:11:56;;;;;;;;;18.00;15.00;;;;;22.01;38.30;103075.59;110787;1255;19044;-48
2022/03/18 00:14:23;;;;;;;;;17.00;15.50;;;;;22.01;38.18;103077.05;110968;1255;19086;-49
2022/03/18 00:16:50;;;;;;;;;19.67;18.67;;;;;22.00;38.06;103076.75;110659;1257;22251;-48
2022/03/18 00:19:17;;;;;;;;;16.67;14.67;;;;;22.01;38.21;103078.87;110819;1255;18826;-46
2022/03/18 00:21:45;;;;;;;;;15.00;15.00;;;;;22.00;38.19;103080.74;110895;1255;18802;-49
2022/03/18 00:24:13;;;;;;;;;17.00;14.33;;;;;22.01;38.09;103080.29;110772;1258;19666;-52
2022/03/18 00:26:40;;;;;;;;;21.00;17.33;;;;;22.01;38.26;103087.20;110903;1255;18852;-48
2022/03/18 00:29:07;;;;;;;;;15.50;15.00;;;;;22.02;38.14;103089.89;110955;1255;19008;-50
2022/03/18 00:31:34;;;;;;;;;17.33;15.67;;;;;22.02;38.08;103090.75;110904;1255;19541;-48
2022/03/18 00:34:03;;;;;;;;;17.33;16.00;;;;;22.02;37.98;103094.59;110906;1255;18817;-49
2022/03/18 00:36:30;;;;;;;;;15.00;14.00;;;;;22.03;38.11;103099.25;110922;1255;19078;-49
2022/03/18 00:38:58;;;;;;;;;15.33;15.00;;;;;22.03;38.10;103101.06;110914;1255;19575;-49
2022/03/18 00:41:27;;;;;;;;;14.00;14.00;;;;;22.00;38.03;103100.02;110973;1255;18739;-50
2022/03/18 00:43:54;;;;;;;;;15.00;15.00;;;;;22.01;38.10;103096.69;110947;1255;18922;-48
2022/03/18 00:46:23;;;;;;;;;17.00;14.67;;;;;22.00;38.17;103101.13;110932;1255;19632;-49
2022/03/18 00:54:20;;;;;;;;;17.33;16.00;;;;;21.99;38.22;103103.56;110944;1255;19600;-48
2022/03/18 00:56:47;;;;;;;;;14.33;14.00;;;;;22.00;38.08;103101.29;110896;1255;18751;-49
2022/03/18 00:59:15;;;;;;;;;15.00;14.00;;;;;22.01;38.07;103096.54;110862;1255;18911;-48
2022/03/18 01:01:43;;;;;;;;;14.00;14.00;;;;;21.99;38.11;103095.37;110942;1255;19497;-49
2022/03/18 01:04:10;;;;;;;;;18.00;14.67;;;;;22.00;38.13;103093.86;110910;1255;18857;-48
2022/03/18 01:06:37;;;;;;;;;19.00;17.00;;;;;22.00;38.10;103095.64;110920;1255;18824;-49
2022/03/18 01:09:04;;;;;;;;;14.00;13.00;;;;;22.01;37.97;103096.90;110915;1255;22139;-48
2022/03/18 01:11:32;;;;;;;;;13.00;13.00;;;;;22.00;38.14;103095.45;110922;1255;18643;-48
2022/03/18 01:13:59;;;;;;;;;13.67;13.00;;;;;22.00;38.10;103097.48;110963;1255;18861;-49
2022/03/18 01:16:26;;;;;;;;;16.67;13.33;;;;;22.02;37.98;103097.73;110915;1255;22488;-49
2022/03/18 01:18:53;;;;;;;;;17.00;14.67;;;;;22.00;37.98;103093.46;110912;1255;18763;-48
2022/03/18 01:21:20;;;;;;;;;13.50;13.50;;;;;22.00;38.10;103097.27;110781;1255;170315;-48
2022/03/18 01:23:48;;;;;;;;;15.00;15.00;;;;;22.00;38.08;103098.08;110830;1255;19694;-47
2022/03/18 01:26:15;;;;;;;;;14.33;10.67;;;;;22.00;38.17;103099.64;110939;1255;18971;-47
2022/03/18 01:28:42;;;;;;;;;11.00;11.00;;;;;22.00;37.95;103099.47;110789;1255;22074;-50
2022/03/18 01:31:09;;;;;;;;;13.00;13.00;;;;;21.99;38.04;103099.36;110920;1255;19745;-48
2022/03/18 01:33:37;;;;;;;;;13.50;13.00;;;;;21.99;38.08;103099.55;110913;1255;20169;-51
2022/03/18 01:36:04;;;;;;;;;11.33;11.33;;;;;21.99;38.08;103102.30;110914;1255;20210;-48
2022/03/18 01:38:31;;;;;;;;;14.00;13.00;;;;;21.99;38.10;103105.17;110946;1255;21714;-49
2022/03/18 01:40:58;;;;;;;;;17.67;13.00;;;;;21.99;37.82;103102.13;110945;1255;18850;-49
2022/03/18 01:43:26;;;;;;;;;13.00;11.00;;;;;21.98;37.92;103103.64;110949;1254;18732;-49
2022/03/18 01:45:53;;;;;;;;;15.33;13.33;;;;;21.99;37.84;103101.05;110931;1255;19488;-49
2022/03/18 01:48:20;;;;;;;;;15.00;14.00;;;;;21.99;37.88;103101.02;110938;1255;18843;-50
2022/03/18 01:50:47;;;;;;;;;14.00;13.00;;;;;22.00;37.96;103107.48;110913;1255;20444;-48
2022/03/18 01:53:15;;;;;;;;;14.00;11.33;;;;;22.00;37.89;103110.92;110935;1255;19517;-49
2022/03/18 01:55:42;;;;;;;;;14.50;13.00;;;;;22.00;37.87;103112.98;110865;1255;18858;-49
2022/03/18 01:58:09;;;;;;;;;12.00;11.33;;;;;22.00;37.87;103112.95;110926;1255;18744;-49
2022/03/18 02:00:36;;;;;;;;;13.00;11.50;;;;;21.99;37.85;103114.15;110809;1256;21057;-49
2022/03/18 02:03:04;;;;;;;;;14.00;12.00;;;;;21.99;37.92;103118.15;110869;1255;19415;-49
2022/03/18 02:05:31;;;;;;;;;13.00;11.00;;;;;21.99;37.90;103117.61;110915;1255;22104;-49
2022/03/18 02:07:58;;;;;;;;;14.00;13.00;;;;;21.99;37.74;103118.48;110930;1255;19806;-49
2022/03/18 02:10:25;;;;;;;;;14.00;11.00;;;;;21.98;37.93;103120.39;110775;1258;22850;-48
2022/03/18 02:12:53;;;;;;;;;14.00;13.00;;;;;21.99;37.79;103126.38;110900;1254;19191;-47
2022/03/18 02:15:20;;;;;;;;;13.00;13.00;;;;;21.99;37.75;103126.84;110913;1255;19756;-49
2022/03/18 02:17:47;;;;;;;;;12.00;12.00;;;;;22.00;37.92;103130.49;110912;1255;22220;-49
2022/03/18 02:20:14;;;;;;;;;12.33;11.00;;;;;21.99;37.71;103129.30;110943;1255;18785;-48
2022/03/18 02:22:42;;;;;;;;;13.67;13.00;;;;;21.98;37.87;103130.02;110956;1255;20820;-48
2022/03/18 02:25:12;;;;;;;;;10.67;10.00;;;;;21.99;37.86;103131.61;110909;1255;23166;-50
2022/03/18 02:27:39;;;;;;;;;15.00;10.33;;;;;21.98;37.75;103133.84;110903;1255;18849;-50
2022/03/18 02:30:06;;;;;;;;;13.00;11.00;;;;;21.99;37.70;103134.37;110920;1255;19545;-48
2022/03/18 02:32:34;;;;;;;;;11.00;11.00;;;;;21.99;37.83;103136.70;110918;1255;18834;-49
2022/03/18 02:35:02;;;;;;;;;10.00;10.00;;;;;21.99;37.77;103143.11;110977;1255;19064;-50
2022/03/18 02:37:29;;;;;;;;;9.00;9.00;;;;;21.99;37.68;103145.31;110913;1255;19704;-49
2022/03/18 02:39:56;;;;;;;;;13.00;11.00;;;;;21.99;37.74;103148.90;110907;1255;18761;-48
2022/03/18 02:42:23;;;;;;;;;13.00;10.67;;;;;21.98;37.68;103153.92;110923;1255;18898;-50
2022/03/18 02:44:51;;;;;;;;;13.00;10.33;;;;;21.99;37.77;103156.21;110910;1255;19638;-49
2022/03/18 02:47:18;;;;;;;;;9.33;9.33;;;;;21.98;37.59;103158.48;110964;1255;18962;-49
2022/03/18 02:49:45;;;;;;;;;11.00;10.00;;;;;21.97;37.74;103162.33;110889;1255;18884;-48
2022/03/18 02:52:12;;;;;;;;;10.33;10.00;;;;;21.97;37.70;103163.45;110886;1255;22220;-48
2022/03/18 02:54:40;;;;;;;;;10.00;9.33;;;;;21.97;37.72;103165.66;110829;1255;22679;-50
2022/03/18 02:57:07;;;;;;;;;14.33;12.33;;;;;21.98;37.65;103171.96;110920;1255;18948;-48
2022/03/18 02:59:34;;;;;;;;;11.33;9.00;;;;;21.98;37.86;103173.05;110902;1255;19813;-50
2022/03/18 03:02:01;;;;;;;;;11.50;10.50;;;;;21.97;37.77;103174.00;110832;1256;19071;-49
2022/03/18 03:04:28;;;;;;;;;10.00;9.00;;;;;21.98;37.75;103173.08;110780;1257;19045;-47
2022/03/18 03:09:41;;;;;;;;;9.33;9.00;;;;;21.98;37.82;103175.38;110732;1258;19096;-49
2022/03/18 03:12:08;;;;;;;;;9.00;9.00;;;;;21.97;37.66;103179.46;110897;1255;21174;-48
2022/03/18 03:14:36;;;;;;;;;12.33;10.33;;;;;21.97;37.72;103178.02;110914;1255;19610;-48
2022/03/18 03:17:03;;;;;;;;;9.50;9.00;;;;;21.97;37.49;103178.02;110958;1255;18495;-49
2022/03/18 03:19:31;;;;;;;;;10.00;10.00;;;;;21.97;37.63;103181.64;110912;1255;19011;-49
2022/03/18 03:21:58;;;;;;;;;10.00;9.50;;;;;21.97;37.71;103190.41;110895;1255;21514;-50
2022/03/18 03:24:26;;;;;;;;;10.00;9.67;;;;;21.98;37.60;103197.77;110914;1255;18678;-49
2022/03/18 03:26:53;;;;;;;;;10.00;9.00;;;;;21.98;37.56;103197.09;110887;1255;21025;-49
2022/03/18 03:29:20;;;;;;;;;10.67;10.00;;;;;21.98;37.64;103197.59;110957;1255;19462;-49
2022/03/18 03:31:47;;;;;;;;;9.33;9.33;;;;;21.97;37.66;103197.48;110828;1255;23601;-49
2022/03/18 03:34:16;;;;;;;;;11.00;11.00;;;;;21.96;37.58;103204.87;110772;1258;18821;-48
2022/03/18 03:36:43;;;;;;;;;9.33;7.67;;;;;21.98;37.59;103212.55;110859;1255;19503;-49
2022/03/18 03:39:10;;;;;;;;;12.33;10.67;;;;;21.96;37.51;103209.58;110904;1255;18703;-48
2022/03/18 03:41:37;;;;;;;;;8.33;8.33;;;;;21.97;37.45;103214.13;110918;1255;18865;-47
2022/03/18 03:44:05;;;;;;;;;9.67;9.00;;;;;21.97;37.52;103223.73;110933;1255;19325;-47
2022/03/18 03:46:33;;;;;;;;;10.00;10.00;;;;;21.97;37.42;103223.04;110939;1255;18465;-50
2022/03/18 03:49:01;;;;;;;;;10.00;10.00;;;;;21.96;37.42;103222.02;110883;1255;20355;-48
2022/03/18 03:51:28;;;;;;;;;9.33;9.33;;;;;21.96;37.65;103227.86;110906;1255;22939;-50
2022/03/18 03:53:55;;;;;;;;;6.33;6.33;;;;;21.96;37.58;103232.95;110920;1255;18742;-49
2022/03/18 03:56:22;;;;;;;;;10.33;10.33;;;;;21.96;37.49;103229.33;110980;1255;18708;-49
2022/03/18 03:58:50;;;;;;;;;10.00;9.50;;;;;21.96;37.59;103234.91;110907;1255;19667;-49
2022/03/18 04:01:17;;;;;;;;;10.00;9.00;;;;;21.95;37.56;103235.36;110895;1255;18943;-49
2022/03/18 04:03:45;;;;;;;;;9.00;7.67;;;;;21.94;37.56;103238.17;110935;1255;21554;-48
2022/03/18 04:06:13;;;;;;;;;10.33;10.00;;;;;21.96;37.52;103238.80;110894;1255;19467;-48
2022/03/18 04:08:41;;;;;;;;;9.67;9.00;;;;;21.95;37.40;103240.64;110889;1255;18424;-50
2022/03/18 04:11:08;;;;;;;;;9.67;9.33;;;;;21.95;37.36;103240.30;110942;1255;18722;-49
2022/03/18 04:13:35;;;;;;;;;10.00;9.50;;;;;21.95;37.21;103244.09;110892;1254;19620;-48
2022/03/18 04:16:03;;;;;;;;;10.33;9.33;;;;;21.96;37.22;103246.80;110958;1255;19242;-51
2022/03/18 04:18:30;;;;;;;;;10.33;9.67;;;;;21.95;37.29;103247.45;110777;1255;18909;-48
2022/03/18 04:20:57;;;;;;;;;10.33;9.67;;;;;21.95;37.22;103249.56;110896;1255;19448;-49
2022/03/18 04:23:24;;;;;;;;;8.00;8.00;;;;;21.95;37.30;103247.42;110831;1256;19400;-47
2022/03/18 04:25:52;;;;;;;;;11.00;10.00;;;;;21.95;37.32;103252.88;110872;1255;22837;-48
2022/03/18 04:28:19;;;;;;;;;9.00;9.00;;;;;21.95;37.42;103250.65;110846;1255;19586;-50
2022/03/18 04:30:46;;;;;;;;;9.33;9.00;;;;;21.94;37.21;103253.30;110785;1256;22113;-47
2022/03/18 04:33:13;;;;;;;;;10.00;9.00;;;;;21.95;37.24;103260.31;110809;1256;18886;-49
2022/03/18 04:35:40;;;;;;;;;10.00;9.50;;;;;21.95;37.19;103263.39;110802;1256;19672;-48
2022/03/18 04:38:08;;;;;;;;;7.00;7.00;;;;;21.94;37.20;103268.02;110837;1256;18851;-48
2022/03/18 04:40:35;;;;;;;;;11.33;9.33;;;;;21.94;37.27;103268.56;110799;1255;21043;-48
2022/03/18 04:43:02;;;;;;;;;11.00;10.00;;;;;21.94;37.25;103269.48;110827;1255;19539;-51
2022/03/18 04:45:29;;;;;;;;;11.00;9.00;;;;;21.94;37.09;103270.61;110902;1255;18832;-48
2022/03/18 04:47:57;;;;;;;;;10.67;10.00;;;;;21.94;37.16;103278.05;110766;1255;18820;-48
2022/03/18 04:50:24;;;;;;;;;11.00;10.00;;;;;21.95;37.08;103281.79;110716;1256;19635;-51
2022/03/18 04:52:51;;;;;;;;;10.00;10.00;;;;;21.95;37.32;103288.52;110775;1255;18780;-48
2022/03/18 04:55:18;;;;;;;;;11.00;9.33;;;;;21.95;37.22;103291.10;110773;1255;22377;-50
2022/03/18 04:57:46;;;;;;;;;10.00;9.00;;;;;21.94;37.15;103295.16;110793;1255;19446;-50
2022/03/18 05:00:13;;;;;;;;;8.00;8.00;;;;;21.94;37.22;103303.52;110870;1255;18695;-48
2022/03/18 05:02:41;;;;;;;;;9.67;9.67;;;;;21.95;37.21;103307.71;110820;1255;18935;-50
2022/03/18 05:05:10;;;;;;;;;10.00;9.33;;;;;21.96;37.19;103312.64;110841;1255;19632;-47
2022/03/18 05:07:38;;;;;;;;;11.00;10.00;;;;;21.95;37.33;103310.92;110881;1255;18461;-48
2022/03/18 05:10:06;;;;;;;;;9.00;9.00;;;;;21.95;37.19;103313.29;110846;1255;19015;-49
2022/03/18 05:12:34;;;;;;;;;9.00;9.00;;;;;21.95;37.07;103315.33;110870;1255;19526;-49
2022/03/18 05:15:01;;;;;;;;;9.00;8.50;;;;;21.94;37.14;103316.68;110854;1255;18697;-48
2022/03/18 05:17:28;;;;;;;;;8.50;8.50;;;;;21.94;37.34;103315.39;110878;1255;18869;-49
2022/03/18 05:19:55;;;;;;;;;10.00;9.00;;;;;21.94;37.30;103324.83;110891;1255;20922;-48
2022/03/18 05:22:22;;;;;;;;;8.67;8.67;;;;;21.94;37.19;103331.55;110870;1255;18622;-48
2022/03/18 05:24:50;;;;;;;;;10.00;9.67;;;;;21.95;37.21;103332.59;110882;1255;18740;-49
2022/03/18 05:27:17;;;;;;;;;7.33;7.33;;;;;21.95;37.20;103335.02;110893;1255;19534;-49
2022/03/18 05:29:45;;;;;;;;;9.50;7.00;;;;;21.95;37.09;103339.19;110792;1256;18674;-49
2022/03/18 05:32:12;;;;;;;;;13.00;11.00;;;;;21.95;37.19;103346.41;110886;1255;22736;-49
2022/03/18 05:34:39;;;;;;;;;10.33;9.00;;;;;21.95;37.02;103345.56;110817;1256;19820;-49
2022/03/18 05:37:06;;;;;;;;;12.00;10.00;;;;;21.95;37.05;103352.59;110772;1255;21189;-49
2022/03/18 05:39:33;;;;;;;;;10.00;9.00;;;;;21.96;37.34;103351.82;110833;1255;18967;-49
2022/03/18 05:42:01;;;;;;;;;7.67;7.67;;;;;21.98;37.73;103353.13;110875;1255;19439;-50
2022/03/18 05:44:28;;;;;;;;;10.67;9.00;;;;;21.96;38.08;103353.80;110900;1255;18813;-48
2022/03/18 05:46:56;;;;;;;;;10.00;7.50;;;;;22.00;38.11;103359.88;110741;1256;18879;-50
2022/03/18 05:49:23;;;;;;;;;10.00;10.00;;;;;22.03;38.27;103361.21;110771;1256;19589;-49
2022/03/18 05:51:50;;;;;;;;;10.00;9.00;;;;;22.05;38.26;103363.08;110808;1255;18885;-49
2022/03/18 05:54:17;;;;;;;;;9.67;9.67;;;;;22.02;38.56;103364.05;110742;1256;21337;-49
2022/03/18 05:56:54;;;;;;;;;14.33;11.00;;;;;22.01;38.62;103367.27;110763;1255;19864;-49
2022/03/18 05:59:21;;;;;;;;;11.50;10.00;;;;;21.98;38.90;103367.10;110814;1256;18714;-51
2022/03/18 06:01:48;;;;;;;;;10.67;9.00;;;;;21.99;38.85;103367.38;110752;1255;18816;-49
2022/03/18 06:04:15;;;;;;;;;9.67;9.00;;;;;22.05;38.71;103376.17;110763;1256;22262;-50
2022/03/18 06:06:43;;;;;;;;;9.50;9.50;;;;;22.09;38.94;103376.84;110601;1255;18763;-49
2022/03/18 06:11:56;;;;;;;;;11.00;11.00;;;;;22.13;39.24;103390.16;110717;1256;19473;-49
2022/03/18 06:14:24;;;;;;;;;10.33;9.33;;;;;22.16;39.29;103394.14;110790;1255;21322;-50
2022/03/18 06:16:52;;;;;;;;;13.33;11.00;;;;;22.19;39.45;103394.65;110770;1255;19002;-50
2022/03/18 06:19:19;;;;;;;;;10.33;10.00;;;;;22.23;39.40;103399.76;110796;1255;19981;-48
2022/03/18 06:21:46;;;;;;;;;11.33;11.00;;;;;22.27;39.29;103404.21;110797;1255;18719;-48
2022/03/18 06:24:13;;;;;;;;;13.67;11.33;;;;;22.29;39.86;103410.05;110784;1256;19061;-49
2022/03/18 06:26:40;;;;;;;;;9.50;9.00;;;;;22.28;39.95;103408.89;110801;1255;20825;-51
2022/03/18 06:29:08;;;;;;;;;11.00;10.00;;;;;22.29;40.28;103413.30;110814;1255;20712;-50
2022/03/18 06:31:35;;;;;;;;;13.00;11.00;;;;;22.32;40.43;103414.54;110780;1255;18818;-50
2022/03/18 06:34:02;;;;;;;;;13.00;11.00;;;;;22.33;40.36;103418.97;110709;1255;22239;-51
2022/03/18 06:36:29;;;;;;;;;10.33;10.00;;;;;22.32;40.53;103421.09;110841;1255;22069;-49
2022/03/18 06:38:57;;;;;;;;;12.67;10.67;;;;;22.33;40.23;103421.59;110795;1255;18840;-51
2022/03/18 06:41:25;;;;;;;;;10.67;10.00;;;;;22.31;40.35;103423.39;110661;1258;19592;-49
2022/03/18 06:43:52;;;;;;;;;10.33;10.00;;;;;22.33;40.34;103423.05;110745;1258;18742;-51
2022/03/18 06:46:19;;;;;;;;;12.00;12.00;;;;;22.35;40.57;103425.23;110701;1257;19257;-50
2022/03/18 06:48:46;;;;;;;;;11.33;10.00;;;;;22.34;40.46;103426.73;110702;1258;20079;-50
2022/03/18 06:51:13;;;;;;;;;13.00;13.00;;;;;22.27;39.39;103429.18;110710;1258;19002;-48
2022/03/18 06:53:41;;;;;;;;;13.00;10.33;;;;;22.20;39.48;103431.68;110717;1258;22766;-50
2022/03/18 06:56:08;;;;;;;;;9.67;9.67;;;;;22.21;39.54;103429.24;110887;1255;20898;-48
2022/03/18 06:58:35;;;;;;;;;10.00;10.00;;;;;22.23;39.51;103432.80;110800;1255;18832;-49
2022/03/18 07:01:02;;;;;;;;;11.00;10.00;;;;;22.24;39.44;103436.88;110741;1258;18892;-49
2022/03/18 07:03:30;;;;;;;;;9.00;9.00;;;;;22.29;39.48;103438.13;110762;1256;21961;-51
2022/03/18 07:05:57;;;;;;;;;11.00;10.00;;;;;22.34;39.64;103445.69;110829;1255;18711;-49
2022/03/18 07:08:24;;;;;;;;;13.00;10.67;;;;;22.33;39.60;103447.08;110900;1255;20334;-51
2022/03/18 07:10:52;;;;;;;;;14.33;13.67;;;;;22.30;39.51;103439.50;110848;1255;22102;-50
2022/03/18 07:13:19;;;;;;;;;13.00;10.33;;;;;22.32;39.57;103444.21;110866;1255;18771;-49
2022/03/18 07:15:46;;;;;;;;;11.00;10.00;;;;;22.34;39.71;103443.52;110886;1255;18961;-50
2022/03/18 07:18:13;;;;;;;;;12.00;11.00;;;;;22.35;39.60;103443.60;110870;1254;19654;-51
2022/03/18 07:20:41;;;;;;;;;11.00;10.00;;;;;22.36;39.48;103449.95;110766;1255;18753;-49
2022/03/18 07:23:08;;;;;;;;;10.50;10.50;;;;;22.35;39.52;103450.55;110885;1255;18777;-50
2022/03/18 07:25:35;;;;;;;;;13.67;13.00;;;;;22.37;39.41;103451.31;110833;1255;23030;-48
2022/03/18 07:28:02;;;;;;;;;13.67;12.33;;;;;22.36;39.60;103457.59;110797;1255;18794;-49
2022/03/18 07:30:30;;;;;;;;;10.00;10.00;;;;;22.31;39.48;103456.46;110866;1255;22421;-48
2022/03/18 07:32:57;;;;;;;;;11.00;11.00;;;;;22.29;39.54;103455.38;110846;1255;20535;-49
2022/03/18 07:35:24;;;;;;;;;11.00;10.50;;;;;22.27;39.57;103458.07;110906;1255;18859;-51
2022/03/18 07:37:51;;;;;;;;;15.00;13.00;;;;;22.29;39.57;103462.12;110873;1255;20151;-50
2022/03/18 07:40:19;;;;;;;;;13.33;11.67;;;;;22.33;39.62;103458.55;110825;1255;19561;-50
2022/03/18 07:42:47;;;;;;;;;13.00;10.33;;;;;22.35;39.26;103460.20;110731;1255;18896;-51
2022/03/18 07:45:14;;;;;;;;;13.00;11.67;;;;;22.33;39.39;103460.88;110734;1257;23459;-51
2022/03/18 07:47:41;;;;;;;;;10.00;10.00;;;;;22.39;39.61;103463.01;110814;1255;19660;-50
2022/03/18 07:50:08;;;;;;;;;13.67;11.00;;;;;22.44;39.54;103470.25;110854;1255;18822;-53
2022/03/18 07:52:35;;;;;;;;;10.67;10.67;;;;;22.47;39.68;103473.05;110804;1255;20233;-51
2022/03/18 07:55:03;;;;;;;;;11.00;11.00;;;;;22.52;40.03;103477.77;110803;1255;19431;-51
2022/03/18 07:57:30;;;;;;;;;12.67;10.00;;;;;22.51;40.33;103466.90;110865;1255;19425;-49
2022/03/18 07:59:57;;;;;;;;;13.33;12.33;;;;;22.59;40.53;103484.31;110897;1255;19156;-49
2022/03/18 08:02:24;;;;;;;;;12.33;10.67;;;;;22.70;40.83;103482.02;110905;1255;22530;-54
2022/03/18 08:04:52;;;;;;;;;10.33;10.33;;;;;22.76;40.74;103491.73;110841;1255;18905;-50
2022/03/18 08:07:19;;;;;;;;;13.00;12.33;;;;;22.77;40.74;103495.09;110809;1255;19068;-51
2022/03/18 08:09:47;;;;;;;;;30.50;27.50;;;;;22.64;39.13;103499.46;110851;1255;19690;-51
2022/03/18 08:12:14;;;;;;;;;31.50;26.50;;;;;22.33;32.32;103509.20;110832;1255;18733;-51
2022/03/18 08:14:41;;;;;;;;;31.67;30.00;;;;;22.02;29.99;103513.26;110864;1255;20301;-50
2022/03/18 08:17:08;;;;;;;;;42.00;35.33;;;;;21.80;27.80;103511.48;110782;1255;19925;-51
2022/03/18 08:19:35;;;;;;;;;34.00;29.00;;;;;21.65;25.92;103512.95;110679;1255;18763;-51
2022/03/18 08:22:04;;;;;;;;;28.67;26.67;;;;;21.50;26.63;103514.61;110525;1255;23259;-49
2022/03/18 08:24:31;;;;;;;;;28.50;26.50;;;;;21.64;27.65;103511.02;110747;1255;19640;-51
2022/03/18 08:26:58;;;;;;;;;27.00;25.00;;;;;21.78;29.62;103513.94;110787;1255;18768;-51
2022/03/18 08:29:26;;;;;;;;;26.67;24.00;;;;;21.93;30.32;103515.74;110897;1255;23139;-52
2022/03/18 08:31:53;;;;;;;;;25.33;25.00;;;;;22.02;30.03;103520.67;110220;1256;23132;-53
2022/03/18 08:34:21;;;;;;;;;29.67;26.67;;;;;22.00;27.98;103520.87;110687;1255;19254;-50
2022/03/18 08:36:48;;;;;;;;;26.00;25.00;;;;;21.93;27.35;103518.83;110795;1255;18867;-50
2022/03/18 08:39:16;;;;;;;;;27.33;27.33;;;;;21.92;27.64;103521.08;110794;1255;19420;-51
2022/03/18 08:41:43;;;;;;;;;54.67;43.33;;;;;21.86;27.01;103516.96;110781;1255;18694;-49
2022/03/18 08:44:10;;;;;;;;;206.00;157.00;;;;;21.91;27.63;103518.81;110655;1255;18818;-50
2022/03/18 08:46:37;;;;;;;;;151.67;119.33;;;;;21.98;28.03;103520.07;110646;1255;19623;-53
2022/03/18 08:49:05;;;;;;;;;196.67;153.00;;;;;22.09;28.35;103524.56;110607;1255;19574;-50
2022/03/18 08:51:32;;;;;;;;;199.00;150.00;;;;;22.19;29.11;103532.20;110711;1255;22603;-49
2022/03/18 08:54:01;;;;;;;;;236.00;174.25;;;;;22.27;29.71;103533.19;110693;1255;21506;-49
2022/03/18 08:56:28;;;;;;;;;215.25;157.00;;;;;22.34;29.80;103529.11;110780;1255;19095;-50
2022/03/18 08:58:55;;;;;;;;;216.25;152.75;;;;;22.41;30.26;103529.48;110791;1255;18883;-52
2022/03/18 09:01:22;;;;;;;;;201.75;152.25;;;;;22.45;30.93;103528.27;110781;1256;19643;-49
2022/03/18 09:03:50;;;;;;;;;202.00;154.50;;;;;22.49;31.47;103529.66;110795;1255;21362;-49
2022/03/18 09:06:17;;;;;;;;;173.75;134.50;;;;;22.55;31.99;103536.10;110781;1255;24108;-52
2022/03/18 09:08:45;;;;;;;;;145.67;106.33;;;;;22.51;32.41;103542.21;110735;1255;22587;-50
2022/03/18 09:11:12;;;;;;;;;116.33;88.67;;;;;22.21;32.25;103545.08;110906;1255;19048;-50
2022/03/18 09:13:39;;;;;;;;;98.00;76.00;;;;;21.92;31.63;103544.02;110806;1255;18972;-52
2022/03/18 09:16:07;;;;;;;;;96.33;69.67;;;;;21.65;31.45;103546.61;110824;1255;19817;-50
2022/03/18 09:18:34;;;;;;;;;84.00;61.00;;;;;21.56;30.76;103545.28;110779;1255;23341;-50
2022/03/18 09:21:01;;;;;;;;;82.67;61.00;;;;;21.52;28.83;103546.16;110834;1255;18845;-49
2022/03/18 09:23:28;;;;;;;;;87.00;61.67;;;;;21.66;29.90;103547.68;110919;1255;19667;-51
2022/03/18 09:25:56;;;;;;;;;83.00;60.00;;;;;21.81;29.91;103548.09;110790;1255;20217;-50
2022/03/18 09:28:24;;;;;;;;;81.00;58.67;;;;;21.93;30.24;103536.90;110784;1255;19225;-53
2022/03/18 09:30:51;;;;;;;;;70.67;54.00;;;;;22.09;31.30;103544.88;110632;1255;19533;-48
2022/03/18 09:33:18;;;;;;;;;76.00;53.50;;;;;22.26;31.86;103538.76;110579;1257;22255;-49
2022/03/18 09:35:46;;;;;;;;;72.50;56.50;;;;;22.39;32.20;103535.68;110811;1255;18799;-50
2022/03/18 09:38:13;;;;;;;;;76.00;57.67;;;;;22.49;32.56;103535.08;110886;1255;19606;-50
2022/03/18 09:40:40;;;;;;;;;73.00;54.00;;;;;22.52;33.17;103534.12;110744;1255;22738;-51
2022/03/18 09:43:07;;;;;;;;;64.00;49.00;;;;;22.51;33.29;103533.23;110666;1258;20077;-51
2022/03/18 09:45:35;;;;;;;;;68.00;50.50;;;;;22.52;33.74;103528.44;110732;1255;19933;-52
2022/03/18 09:48:02;;;;;;;;;62.00;51.33;;;;;22.52;33.68;103523.73;110797;1255;18781;-47
2022/03/18 09:50:29;;;;;;;;;66.50;47.00;;;;;22.48;33.83;103531.55;110768;1255;22689;-52
2022/03/18 09:52:56;;;;;;;;;57.33;47.00;;;;;22.43;33.92;103536.46;110738;1255;19681;-50
2022/03/18 09:55:23;;;;;;;;;61.33;49.33;;;;;22.40;34.27;103538.48;110790;1255;18717;-49
2022/03/18 09:57:51;;;;;;;;;55.67;44.00;;;;;22.41;34.32;103539.02;110766;1255;22313;-49
2022/03/18 10:00:18;;;;;;;;;58.67;47.33;;;;;22.43;34.42;103545.23;110786;1256;19670;-51
2022/03/18 10:02:46;;;;;;;;;61.00;44.00;;;;;22.44;34.61;103544.25;110729;1255;18740;-50
2022/03/18 10:05:13;;;;;;;;;57.33;45.33;;;;;22.43;34.69;103548.00;110454;1255;22800;-50
2022/03/18 10:07:40;;;;;;;;;56.67;43.00;;;;;22.40;34.77;103544.90;110552;1255;19470;-50
2022/03/18 10:10:10;;;;;;;;;56.00;43.50;;;;;22.37;34.76;103551.13;110849;1255;18890;-50
2022/03/18 10:12:37;;;;;;;;;52.00;40.00;;;;;22.35;34.74;103555.86;110902;1255;18849;-51
2022/03/18 10:15:04;;;;;;;;;51.67;43.00;;;;;22.32;34.68;103556.64;110859;1255;19528;-50
2022/03/18 10:17:31;;;;;;;;;46.33;39.00;;;;;22.30;34.67;103557.36;110919;1255;18827;-50
2022/03/18 10:19:59;;;;;;;;;47.00;38.33;;;;;22.29;34.65;103562.70;110888;1255;22523;-50
2022/03/18 10:22:28;;;;;;;;;43.00;38.50;;;;;22.28;34.70;103563.30;110847;1255;19636;-49
2022/03/18 10:24:55;;;;;;;;;42.00;36.50;;;;;22.27;34.52;103561.21;110831;1255;22623;-50
2022/03/18 10:27:23;;;;;;;;;42.67;39.33;;;;;22.26;34.65;103563.50;110805;1255;19019;-50
2022/03/18 10:29:50;;;;;;;;;46.67;39.00;;;;;22.25;34.39;103563.23;110852;1255;19513;-48
2022/03/18 10:32:17;;;;;;;;;42.00;34.50;;;;;22.25;34.39;103562.31;110798;1255;18796;-51
2022/03/18 10:37:29;;;;;;;;;41.67;33.00;;;;;22.23;34.35;103560.45;110886;1255;19692;-51
2022/03/18 10:39:57;;;;;;;;;34.33;31.00;;;;;22.22;34.30;103560.86;110874;1255;24409;-50
2022/03/18 10:42:24;;;;;;;;;33.67;27.00;;;;;22.21;34.39;103565.65;110904;1255;18814;-50
2022/03/18 10:44:51;;;;;;;;;33.67;28.67;;;;;22.21;34.39;103562.09;110916;1255;20411;-49
2022/03/18 10:47:19;;;;;;;;;38.00;33.00;;;;;22.19;34.56;103561.29;110942;1255;19037;-53
2022/03/18 10:49:46;;;;;;;;;37.33;29.33;;;;;22.19;34.46;103569.45;110842;1255;19016;-52
2022/03/18 10:52:14;;;;;;;;;35.50;29.50;;;;;22.19;34.44;103572.61;110786;1257;19547;-49
2022/03/18 10:54:42;;;;;;;;;37.00;29.67;;;;;22.19;34.25;103571.52;110919;1255;18875;-52
2022/03/18 10:57:09;;;;;;;;;34.00;27.67;;;;;22.19;34.46;103568.77;110879;1255;18751;-51
2022/03/18 10:59:37;;;;;;;;;34.00;29.00;;;;;22.19;34.28;103565.00;110877;1255;22620;-50
2022/03/18 11:02:05;;;;;;;;;31.33;22.67;;;;;22.19;34.40;103565.55;110902;1255;18798;-50
2022/03/18 11:04:32;;;;;;;;;25.33;22.00;;;;;22.19;34.20;103566.60;110898;1255;21036;-52
2022/03/18 11:12:25;;;;;;;;;35.00;26.00;;;;;22.19;34.16;103562.08;110907;1255;20237;-50
2022/03/18 11:14:53;;;;;;;;;33.00;27.00;;;;;22.19;34.14;103566.28;110890;1255;19598;-50
2022/03/18 11:17:21;;;;;;;;;26.00;25.50;;;;;22.18;34.07;103569.77;110920;1255;18876;-51
2022/03/18 11:19:48;;;;;;;;;29.50;25.00;;;;;22.18;34.02;103573.27;110901;1255;19078;-50
2022/03/18 11:22:15;;;;;;;;;26.00;24.33;;;;;22.18;33.86;103579.27;110895;1255;19799;-51
2022/03/18 11:24:43;;;;;;;;;25.00;22.00;;;;;22.18;33.75;103576.55;110917;1254;21471;-52